KCLL

Easterwood Field Airport

College Station, Texas, USA
KCLL 212340Z 2200/2224 15015G21KT P6SM SCT040 FM220300 16012G18KT P6SM BKN025 OVC035 FM221000 17013G20KT P6SM BKN015 OVC025 FM221600 18015G24KT P6SM VCSH BKN025 OVC035 FM222300 19009G15KT P6SM -SHRA OVC025
Issued Valid From Valid To
Jan-21 @ 23:40 UTC
(27 minutes ago)
Jan-22 @ 00:00 UTC
(7 minutes ago)
Jan-23 @ 00:00 UTC
(in 24 hours)
Jan-22 @ 00:00 to Jan-22 @ 03:00
KCLL 212340Z 2200/2224 15015G21KT P6SM SCT040
Wind Visibility Clouds
150° at 15 knots
 Gusting to 21 knots
Greater than 6 miles
  • Scattered at 4,000' AGL
From Jan-22 @ 03:00 to Jan-22 @ 10:00
FM220300 16012G18KT P6SM BKN025 OVC035
Wind Visibility Clouds
160° at 12 knots
 Gusting to 18 knots
Greater than 6 miles
  • Broken at 2,500' AGL
  • Overcast at 3,500' AGL
From Jan-22 @ 10:00 to Jan-22 @ 16:00
FM221000 17013G20KT P6SM BKN015 OVC025
Wind Visibility Clouds
170° at 13 knots
 Gusting to 20 knots
Greater than 6 miles
  • Broken at 1,500' AGL
  • Overcast at 2,500' AGL
From Jan-22 @ 16:00 to Jan-22 @ 23:00
FM221600 18015G24KT P6SM VCSH BKN025 OVC035
Wind Visibility Clouds
180° at 15 knots
 Gusting to 24 knots
Greater than 6 miles
  • Broken at 2,500' AGL
  • Overcast at 3,500' AGL
From Jan-22 @ 23:00 to Jan-23 @ 00:00
FM222300 19009G15KT P6SM -SHRA OVC025
Wind Visibility Clouds Conditions
190° at 9 knots
 Gusting to 15 knots
Greater than 6 miles
  • Overcast at 2,500' AGL
  • Light Rain
KCLL 212340Z 2200/2224 15015G21KT P6SM SCT040 FM220300 16012G18KT P6SM BKN025 OVC035 FM221000 17013G20KT P6SM BKN015 OVC025 FM221600 18015G24KT P6SM VCSH BKN025 OVC035 FM222300 19009G15KT P6SM -SHRA OVC025
Issued Jan-21 @ 23:40 UTC
(27 minutes ago)
Valid From Jan-22 @ 00:00 UTC
(7 minutes ago)
Valid To Jan-23 @ 00:00 UTC
(in 24 hours)
Jan-22 @ 00:00 - Jan-22 @ 03:00
Wind Visibility
150° at 15 knots
 Gusting to 21 knots
Greater than 6 miles
Clouds
  • Scattered at 4,000' AGL
From Jan-22 @ 03:00 - Jan-22 @ 10:00
Wind Visibility
160° at 12 knots
 Gusting to 18 knots
Greater than 6 miles
Clouds
  • Broken at 2,500' AGL
  • Overcast at 3,500' AGL
From Jan-22 @ 10:00 - Jan-22 @ 16:00
Wind Visibility
170° at 13 knots
 Gusting to 20 knots
Greater than 6 miles
Clouds
  • Broken at 1,500' AGL
  • Overcast at 2,500' AGL
From Jan-22 @ 16:00 - Jan-22 @ 23:00
Wind Visibility
180° at 15 knots
 Gusting to 24 knots
Greater than 6 miles
Clouds
  • Broken at 2,500' AGL
  • Overcast at 3,500' AGL
From Jan-22 @ 23:00 - Jan-23 @ 00:00
Wind Visibility
190° at 9 knots
 Gusting to 15 knots
Greater than 6 miles
Clouds
  • Overcast at 2,500' AGL
Conditions
  • Light Rain